sensor_id;sensor_type;location;lat;lon;timestamp;pressure;altitude;pressure_sealevel;temperature;humidity
34073;BME280;20346;52.702;16.886;2023-07-24T00:01:18;100057.02;;;19.73;42.77
34073;BME280;20346;52.702;16.886;2023-07-24T00:04:04;100049.56;;;19.69;42.83
34073;BME280;20346;52.702;16.886;2023-07-24T00:06:50;100038.41;;;19.66;42.98
34073;BME280;20346;52.702;16.886;2023-07-24T00:09:36;100035.13;;;19.60;43.09
34073;BME280;20346;52.702;16.886;2023-07-24T00:12:22;100032.46;;;19.46;43.18
34073;BME280;20346;52.702;16.886;2023-07-24T00:15:08;100028.66;;;19.34;43.24
34073;BME280;20346;52.702;16.886;2023-07-24T00:17:54;100019.61;;;19.28;43.44
34073;BME280;20346;52.702;16.886;2023-07-24T00:20:41;100025.23;;;19.24;43.53
34073;BME280;20346;52.702;16.886;2023-07-24T00:23:27;100030.98;;;19.22;43.68
34073;BME280;20346;52.702;16.886;2023-07-24T00:26:13;100028.45;;;19.21;43.72
34073;BME280;20346;52.702;16.886;2023-07-24T00:28:59;100031.95;;;19.17;43.73
34073;BME280;20346;52.702;16.886;2023-07-24T00:31:46;100039.70;;;19.11;43.84
34073;BME280;20346;52.702;16.886;2023-07-24T00:34:32;100041.73;;;19.01;43.94
34073;BME280;20346;52.702;16.886;2023-07-24T00:37:18;100040.77;;;18.93;44.10
34073;BME280;20346;52.702;16.886;2023-07-24T00:40:04;100037.36;;;18.92;44.09
34073;BME280;20346;52.702;16.886;2023-07-24T00:42:51;100037.21;;;18.85;44.14
34073;BME280;20346;52.702;16.886;2023-07-24T00:45:38;100032.91;;;18.78;44.33
34073;BME280;20346;52.702;16.886;2023-07-24T00:48:24;100031.77;;;18.72;44.37
34073;BME280;20346;52.702;16.886;2023-07-24T00:51:10;100029.46;;;18.69;44.52
34073;BME280;20346;52.702;16.886;2023-07-24T00:54:00;100022.83;;;18.66;44.55
34073;BME280;20346;52.702;16.886;2023-07-24T00:56:47;100020.27;;;18.59;44.66
34073;BME280;20346;52.702;16.886;2023-07-24T00:59:33;100018.46;;;18.51;44.78
34073;BME280;20346;52.702;16.886;2023-07-24T01:02:19;100018.78;;;18.42;44.88
34073;BME280;20346;52.702;16.886;2023-07-24T01:05:06;100020.67;;;18.37;45.03
34073;BME280;20346;52.702;16.886;2023-07-24T01:07:53;100018.77;;;18.34;45.11
34073;BME280;20346;52.702;16.886;2023-07-24T01:10:39;100011.54;;;18.23;45.20
34073;BME280;20346;52.702;16.886;2023-07-24T01:13:25;100014.00;;;18.14;45.27
34073;BME280;20346;52.702;16.886;2023-07-24T01:16:16;100018.22;;;18.10;45.46
34073;BME280;20346;52.702;16.886;2023-07-24T01:19:07;100014.77;;;18.09;45.51
34073;BME280;20346;52.702;16.886;2023-07-24T01:22:01;100011.16;;;18.02;45.69
34073;BME280;20346;52.702;16.886;2023-07-24T01:28:08;100006.92;;;18.09;45.88
34073;BME280;20346;52.702;16.886;2023-07-24T01:30:54;100008.27;;;18.10;45.90
34073;BME280;20346;52.702;16.886;2023-07-24T01:33:41;100006.82;;;18.08;46.07
34073;BME280;20346;52.702;16.886;2023-07-24T01:36:27;100012.90;;;18.09;46.24
34073;BME280;20346;52.702;16.886;2023-07-24T01:39:13;100011.22;;;18.11;46.30
34073;BME280;20346;52.702;16.886;2023-07-24T01:42:00;100009.48;;;18.10;46.42
34073;BME280;20346;52.702;16.886;2023-07-24T01:44:51;100006.88;;;18.13;46.55
34073;BME280;20346;52.702;16.886;2023-07-24T01:47:38;100001.92;;;18.17;46.63
34073;BME280;20346;52.702;16.886;2023-07-24T01:50:24;99997.95;;;18.22;46.56
34073;BME280;20346;52.702;16.886;2023-07-24T01:53:10;100001.25;;;18.26;46.66
34073;BME280;20346;52.702;16.886;2023-07-24T01:55:57;99998.20;;;18.30;46.66
34073;BME280;20346;52.702;16.886;2023-07-24T01:58:44;99998.23;;;18.32;46.74
34073;BME280;20346;52.702;16.886;2023-07-24T02:01:30;99995.65;;;18.35;46.83
34073;BME280;20346;52.702;16.886;2023-07-24T02:04:16;99991.67;;;18.40;46.85
34073;BME280;20346;52.702;16.886;2023-07-24T02:07:02;99993.44;;;18.43;46.84
34073;BME280;20346;52.702;16.886;2023-07-24T02:09:49;99992.67;;;18.47;46.94
34073;BME280;20346;52.702;16.886;2023-07-24T02:12:35;99990.26;;;18.50;47.02
34073;BME280;20346;52.702;16.886;2023-07-24T02:15:21;99990.15;;;18.51;47.09
34073;BME280;20346;52.702;16.886;2023-07-24T02:18:07;99993.55;;;18.53;47.23
34073;BME280;20346;52.702;16.886;2023-07-24T02:20:53;99993.38;;;18.56;47.25
34073;BME280;20346;52.702;16.886;2023-07-24T02:23:39;99995.13;;;18.59;47.25
34073;BME280;20346;52.702;16.886;2023-07-24T02:26:25;99998.00;;;18.61;47.35
34073;BME280;20346;52.702;16.886;2023-07-24T02:29:11;99996.85;;;18.63;47.37
34073;BME280;20346;52.702;16.886;2023-07-24T02:31:58;99994.33;;;18.64;47.33
34073;BME280;20346;52.702;16.886;2023-07-24T02:34:44;99985.71;;;18.65;47.42
34073;BME280;20346;52.702;16.886;2023-07-24T02:37:30;99989.19;;;18.65;47.41
34073;BME280;20346;52.702;16.886;2023-07-24T02:40:16;99983.54;;;18.66;47.60
34073;BME280;20346;52.702;16.886;2023-07-24T02:43:02;99979.69;;;18.67;47.64
34073;BME280;20346;52.702;16.886;2023-07-24T02:45:48;99977.38;;;18.67;47.71
34073;BME280;20346;52.702;16.886;2023-07-24T02:48:34;99979.30;;;18.70;47.83
34073;BME280;20346;52.702;16.886;2023-07-24T02:51:20;99985.41;;;18.73;47.72
34073;BME280;20346;52.702;16.886;2023-07-24T02:54:06;99985.63;;;18.75;47.80
34073;BME280;20346;52.702;16.886;2023-07-24T02:56:53;99984.10;;;18.74;47.85
34073;BME280;20346;52.702;16.886;2023-07-24T02:59:39;99982.85;;;18.74;47.97
34073;BME280;20346;52.702;16.886;2023-07-24T03:02:25;99975.67;;;18.78;47.96
34073;BME280;20346;52.702;16.886;2023-07-24T03:05:11;99970.75;;;18.81;48.02
34073;BME280;20346;52.702;16.886;2023-07-24T03:07:57;99971.82;;;18.83;48.06
34073;BME280;20346;52.702;16.886;2023-07-24T03:10:43;99977.98;;;18.86;48.02
34073;BME280;20346;52.702;16.886;2023-07-24T03:13:29;99976.89;;;18.87;48.17
34073;BME280;20346;52.702;16.886;2023-07-24T03:16:16;99974.40;;;18.87;48.15
34073;BME280;20346;52.702;16.886;2023-07-24T03:19:06;99970.66;;;18.85;48.26
34073;BME280;20346;52.702;16.886;2023-07-24T03:21:52;99971.23;;;18.88;48.23
34073;BME280;20346;52.702;16.886;2023-07-24T03:24:38;99972.33;;;18.90;48.42
34073;BME280;20346;52.702;16.886;2023-07-24T03:27:24;99968.53;;;18.92;48.35
34073;BME280;20346;52.702;16.886;2023-07-24T03:30:10;99964.34;;;18.95;48.41
34073;BME280;20346;52.702;16.886;2023-07-24T03:32:57;99961.88;;;18.98;48.51
34073;BME280;20346;52.702;16.886;2023-07-24T03:35:43;99963.53;;;18.94;48.50
34073;BME280;20346;52.702;16.886;2023-07-24T03:38:29;99954.84;;;18.93;48.58
34073;BME280;20346;52.702;16.886;2023-07-24T03:41:15;99949.88;;;18.97;48.88
34073;BME280;20346;52.702;16.886;2023-07-24T03:44:01;99951.70;;;18.96;48.82
34073;BME280;20346;52.702;16.886;2023-07-24T03:46:47;99946.90;;;18.97;48.97
34073;BME280;20346;52.702;16.886;2023-07-24T03:49:33;99947.85;;;19.01;48.86
34073;BME280;20346;52.702;16.886;2023-07-24T03:52:19;99947.65;;;19.05;49.08
34073;BME280;20346;52.702;16.886;2023-07-24T03:55:05;99943.73;;;19.06;49.18
34073;BME280;20346;52.702;16.886;2023-07-24T03:57:53;99941.75;;;19.07;49.21
34073;BME280;20346;52.702;16.886;2023-07-24T04:00:39;99942.38;;;19.08;49.37
34073;BME280;20346;52.702;16.886;2023-07-24T04:03:25;99939.15;;;19.09;49.31
34073;BME280;20346;52.702;16.886;2023-07-24T04:06:11;99938.56;;;19.10;49.40
34073;BME280;20346;52.702;16.886;2023-07-24T04:08:57;99941.45;;;19.12;49.56
34073;BME280;20346;52.702;16.886;2023-07-24T04:11:44;99936.09;;;19.13;49.57
34073;BME280;20346;52.702;16.886;2023-07-24T04:14:30;99934.13;;;19.14;49.66
34073;BME280;20346;52.702;16.886;2023-07-24T04:17:16;99932.32;;;19.15;49.69
34073;BME280;20346;52.702;16.886;2023-07-24T04:20:02;99930.09;;;19.17;49.77
34073;BME280;20346;52.702;16.886;2023-07-24T04:22:49;99930.70;;;19.19;49.72
34073;BME280;20346;52.702;16.886;2023-07-24T04:25:35;99935.17;;;19.20;49.68
34073;BME280;20346;52.702;16.886;2023-07-24T04:28:21;99936.38;;;19.21;49.66
34073;BME280;20346;52.702;16.886;2023-07-24T04:31:07;99943.46;;;19.22;49.75
34073;BME280;20346;52.702;16.886;2023-07-24T04:33:53;99942.52;;;19.23;49.73
34073;BME280;20346;52.702;16.886;2023-07-24T04:36:39;99941.16;;;19.24;49.73
34073;BME280;20346;52.702;16.886;2023-07-24T04:39:25;99938.58;;;19.26;49.78
34073;BME280;20346;52.702;16.886;2023-07-24T04:42:11;99943.50;;;19.29;49.77
34073;BME280;20346;52.702;16.886;2023-07-24T04:44:57;99955.01;;;19.32;49.86
34073;BME280;20346;52.702;16.886;2023-07-24T04:47:43;99950.96;;;19.35;50.05
34073;BME280;20346;52.702;16.886;2023-07-24T04:50:29;99955.12;;;19.39;50.21
34073;BME280;20346;52.702;16.886;2023-07-24T04:53:16;99961.38;;;19.42;50.34
34073;BME280;20346;52.702;16.886;2023-07-24T04:56:02;99977.66;;;19.41;50.49
34073;BME280;20346;52.702;16.886;2023-07-24T04:58:48;99989.46;;;19.43;50.63
34073;BME280;20346;52.702;16.886;2023-07-24T05:01:34;99971.79;;;19.43;50.72
34073;BME280;20346;52.702;16.886;2023-07-24T05:04:20;99967.19;;;19.38;50.83
34073;BME280;20346;52.702;16.886;2023-07-24T05:07:06;99978.27;;;19.32;51.19
34073;BME280;20346;52.702;16.886;2023-07-24T05:09:52;99975.13;;;19.32;51.42
34073;BME280;20346;52.702;16.886;2023-07-24T05:12:40;99962.03;;;19.18;51.49
34073;BME280;20346;52.702;16.886;2023-07-24T05:15:26;99962.09;;;19.08;51.78
34073;BME280;20346;52.702;16.886;2023-07-24T05:18:12;99961.05;;;19.08;51.94
34073;BME280;20346;52.702;16.886;2023-07-24T05:20:58;99959.54;;;19.10;52.13
34073;BME280;20346;52.702;16.886;2023-07-24T05:23:44;99960.51;;;19.12;52.27
34073;BME280;20346;52.702;16.886;2023-07-24T05:26:30;99955.44;;;19.09;52.44
34073;BME280;20346;52.702;16.886;2023-07-24T05:29:16;99952.63;;;19.03;52.61
34073;BME280;20346;52.702;16.886;2023-07-24T05:32:02;99948.23;;;19.01;52.65
34073;BME280;20346;52.702;16.886;2023-07-24T05:34:48;99948.48;;;18.94;52.87
34073;BME280;20346;52.702;16.886;2023-07-24T05:37:34;99946.83;;;18.95;53.13
34073;BME280;20346;52.702;16.886;2023-07-24T05:40:20;99934.17;;;18.97;53.02
34073;BME280;20346;52.702;16.886;2023-07-24T05:43:07;99933.66;;;18.99;53.30
34073;BME280;20346;52.702;16.886;2023-07-24T05:45:54;99927.34;;;18.97;53.48
34073;BME280;20346;52.702;16.886;2023-07-24T05:48:40;99926.70;;;18.99;53.49
34073;BME280;20346;52.702;16.886;2023-07-24T05:51:26;99924.20;;;19.02;53.55
34073;BME280;20346;52.702;16.886;2023-07-24T05:54:12;99920.17;;;19.05;53.65
34073;BME280;20346;52.702;16.886;2023-07-24T05:56:58;99911.94;;;18.97;53.63
34073;BME280;20346;52.702;16.886;2023-07-24T05:59:44;99910.33;;;18.98;53.93
34073;BME280;20346;52.702;16.886;2023-07-24T06:02:31;99905.06;;;19.07;54.07
34073;BME280;20346;52.702;16.886;2023-07-24T06:05:17;99898.92;;;19.19;54.13
34073;BME280;20346;52.702;16.886;2023-07-24T06:08:03;99897.94;;;19.28;54.28
34073;BME280;20346;52.702;16.886;2023-07-24T06:10:49;99896.83;;;19.43;54.53
34073;BME280;20346;52.702;16.886;2023-07-24T06:13:36;99892.84;;;19.56;54.38
34073;BME280;20346;52.702;16.886;2023-07-24T06:16:22;99898.05;;;19.70;54.67
34073;BME280;20346;52.702;16.886;2023-07-24T06:19:08;99893.73;;;19.90;54.53
34073;BME280;20346;52.702;16.886;2023-07-24T06:21:54;99890.71;;;20.14;54.52
34073;BME280;20346;52.702;16.886;2023-07-24T06:24:40;99883.90;;;20.42;54.59
34073;BME280;20346;52.702;16.886;2023-07-24T06:27:26;99880.09;;;20.75;54.63
34073;BME280;20346;52.702;16.886;2023-07-24T06:30:12;99874.00;;;21.08;54.32
34073;BME280;20346;52.702;16.886;2023-07-24T06:32:58;99870.45;;;21.22;54.26
34073;BME280;20346;52.702;16.886;2023-07-24T06:35:45;99869.38;;;21.36;54.36
34073;BME280;20346;52.702;16.886;2023-07-24T06:38:31;99869.89;;;21.60;54.37
34073;BME280;20346;52.702;16.886;2023-07-24T06:41:17;99865.66;;;21.77;54.28
34073;BME280;20346;52.702;16.886;2023-07-24T06:44:05;99865.70;;;21.93;54.17
34073;BME280;20346;52.702;16.886;2023-07-24T06:46:51;99865.02;;;22.11;54.20
34073;BME280;20346;52.702;16.886;2023-07-24T06:49:37;99860.42;;;22.43;54.39
34073;BME280;20346;52.702;16.886;2023-07-24T06:52:23;99862.70;;;23.38;54.18
34073;BME280;20346;52.702;16.886;2023-07-24T06:55:09;99854.71;;;24.38;53.75
34073;BME280;20346;52.702;16.886;2023-07-24T06:57:55;99850.02;;;24.92;53.13
34073;BME280;20346;52.702;16.886;2023-07-24T07:00:41;99849.98;;;25.20;52.80
34073;BME280;20346;52.702;16.886;2023-07-24T07:03:27;99849.39;;;25.43;52.62
34073;BME280;20346;52.702;16.886;2023-07-24T07:06:13;99846.08;;;25.53;52.30
34073;BME280;20346;52.702;16.886;2023-07-24T07:08:59;99846.08;;;25.81;52.23
34073;BME280;20346;52.702;16.886;2023-07-24T07:11:46;99848.29;;;27.10;52.08
34073;BME280;20346;52.702;16.886;2023-07-24T07:14:32;99845.52;;;28.50;51.21
34073;BME280;20346;52.702;16.886;2023-07-24T07:17:18;99846.39;;;28.67;50.75
34073;BME280;20346;52.702;16.886;2023-07-24T07:20:05;99840.30;;;28.63;50.93
34073;BME280;20346;52.702;16.886;2023-07-24T07:22:51;99842.45;;;29.66;50.47
34073;BME280;20346;52.702;16.886;2023-07-24T07:25:37;99841.73;;;29.79;49.69
34073;BME280;20346;52.702;16.886;2023-07-24T07:28:23;99845.99;;;30.22;49.77
34073;BME280;20346;52.702;16.886;2023-07-24T07:31:09;99843.33;;;30.63;49.36
34073;BME280;20346;52.702;16.886;2023-07-24T07:33:55;99839.52;;;30.80;48.95
34073;BME280;20346;52.702;16.886;2023-07-24T07:36:41;99834.60;;;30.47;48.89
34073;BME280;20346;52.702;16.886;2023-07-24T07:39:27;99831.52;;;29.99;48.85
34073;BME280;20346;52.702;16.886;2023-07-24T07:42:13;99832.66;;;29.46;48.75
34073;BME280;20346;52.702;16.886;2023-07-24T07:44:59;99833.11;;;28.94;48.63
34073;BME280;20346;52.702;16.886;2023-07-24T07:47:45;99830.83;;;28.82;48.72
34073;BME280;20346;52.702;16.886;2023-07-24T07:50:31;99826.64;;;28.87;48.32
34073;BME280;20346;52.702;16.886;2023-07-24T07:53:18;99826.42;;;28.94;48.27
34073;BME280;20346;52.702;16.886;2023-07-24T07:56:04;99821.17;;;29.58;47.91
34073;BME280;20346;52.702;16.886;2023-07-24T07:58:50;99817.87;;;30.12;47.52
34073;BME280;20346;52.702;16.886;2023-07-24T08:01:36;99816.88;;;31.12;47.25
34073;BME280;20346;52.702;16.886;2023-07-24T08:04:24;99819.25;;;33.77;46.53
34073;BME280;20346;52.702;16.886;2023-07-24T08:07:10;99822.83;;;34.39;45.53
34073;BME280;20346;52.702;16.886;2023-07-24T08:09:56;99823.89;;;36.24;45.22
34073;BME280;20346;52.702;16.886;2023-07-24T08:12:43;99819.46;;;38.39;44.51
34073;BME280;20346;52.702;16.886;2023-07-24T08:15:33;99814.03;;;40.19;43.99
34073;BME280;20346;52.702;16.886;2023-07-24T08:18:19;99810.00;;;41.41;43.30
34073;BME280;20346;52.702;16.886;2023-07-24T08:21:05;99807.54;;;41.52;42.83
34073;BME280;20346;52.702;16.886;2023-07-24T08:23:51;99810.80;;;42.72;42.55
34073;BME280;20346;52.702;16.886;2023-07-24T08:26:37;99811.55;;;43.92;41.51
34073;BME280;20346;52.702;16.886;2023-07-24T08:29:24;99807.17;;;44.00;40.90
34073;BME280;20346;52.702;16.886;2023-07-24T08:32:10;99798.36;;;43.42;40.22
34073;BME280;20346;52.702;16.886;2023-07-24T08:34:57;99791.76;;;40.93;39.92
34073;BME280;20346;52.702;16.886;2023-07-24T08:37:43;99791.94;;;38.92;39.96
34073;BME280;20346;52.702;16.886;2023-07-24T08:40:29;99787.33;;;39.91;39.67
34073;BME280;20346;52.702;16.886;2023-07-24T08:43:15;99781.19;;;39.77;38.09
34073;BME280;20346;52.702;16.886;2023-07-24T08:46:02;99783.67;;;39.47;38.33
34073;BME280;20346;52.702;16.886;2023-07-24T08:48:50;99783.67;;;41.36;37.57
34073;BME280;20346;52.702;16.886;2023-07-24T08:51:38;99789.68;;;42.07;36.31
34073;BME280;20346;52.702;16.886;2023-07-24T08:54:25;99790.17;;;39.91;36.13
34073;BME280;20346;52.702;16.886;2023-07-24T08:57:12;99789.44;;;38.00;36.03
34073;BME280;20346;52.702;16.886;2023-07-24T08:59:59;99791.14;;;36.57;35.73
34073;BME280;20346;52.702;16.886;2023-07-24T09:02:50;99793.02;;;35.18;35.79
34073;BME280;20346;52.702;16.886;2023-07-24T09:05:36;99798.73;;;34.11;35.61
34073;BME280;20346;52.702;16.886;2023-07-24T09:08:27;99792.45;;;33.22;35.52
34073;BME280;20346;52.702;16.886;2023-07-24T09:10:53;99788.73;;;32.67;35.73
34073;BME280;20346;52.702;16.886;2023-07-24T09:13:27;99781.73;;;32.34;35.49
34073;BME280;20346;52.702;16.886;2023-07-24T09:16:23;99772.40;;;31.89;35.26
34073;BME280;20346;52.702;16.886;2023-07-24T09:19:16;99775.22;;;31.33;35.16
34073;BME280;20346;52.702;16.886;2023-07-24T09:25:35;99765.73;;;30.75;35.43
34073;BME280;20346;52.702;16.886;2023-07-24T09:28:37;99759.75;;;30.59;35.37
34073;BME280;20346;52.702;16.886;2023-07-24T09:31:22;99756.77;;;30.27;35.14
34073;BME280;20346;52.702;16.886;2023-07-24T09:34:31;99753.55;;;29.94;35.28
34073;BME280;20346;52.702;16.886;2023-07-24T09:37:38;99750.79;;;29.72;35.50
34073;BME280;20346;52.702;16.886;2023-07-24T09:40:45;99748.99;;;29.52;35.59
34073;BME280;20346;52.702;16.886;2023-07-24T09:43:57;99752.38;;;29.29;35.44
34073;BME280;20346;52.702;16.886;2023-07-24T09:46:43;99749.92;;;29.09;35.71
34073;BME280;20346;52.702;16.886;2023-07-24T09:49:34;99737.42;;;28.94;35.69
34073;BME280;20346;52.702;16.886;2023-07-24T09:52:59;99732.93;;;28.92;36.00
34073;BME280;20346;52.702;16.886;2023-07-24T09:56:08;99728.59;;;28.86;36.01
34073;BME280;20346;52.702;16.886;2023-07-24T09:59:10;99720.52;;;28.78;36.10
34073;BME280;20346;52.702;16.886;2023-07-24T10:02:17;99717.92;;;28.74;36.27
34073;BME280;20346;52.702;16.886;2023-07-24T10:05:04;99718.27;;;28.69;36.26
34073;BME280;20346;52.702;16.886;2023-07-24T10:07:34;99719.96;;;28.59;36.30
34073;BME280;20346;52.702;16.886;2023-07-24T10:10:22;99725.80;;;28.51;36.44
34073;BME280;20346;52.702;16.886;2023-07-24T10:13:08;99720.90;;;28.48;36.46
34073;BME280;20346;52.702;16.886;2023-07-24T10:16:11;99719.53;;;28.46;36.55
34073;BME280;20346;52.702;16.886;2023-07-24T10:18:44;99719.29;;;28.44;36.78
34073;BME280;20346;52.702;16.886;2023-07-24T10:21:15;99728.03;;;28.45;36.80
34073;BME280;20346;52.702;16.886;2023-07-24T10:24:20;99724.47;;;28.43;36.84
34073;BME280;20346;52.702;16.886;2023-07-24T10:26:49;99721.25;;;28.43;36.79
34073;BME280;20346;52.702;16.886;2023-07-24T10:29:35;99721.02;;;28.44;37.03
34073;BME280;20346;52.702;16.886;2023-07-24T10:32:46;99713.77;;;28.45;37.00
34073;BME280;20346;52.702;16.886;2023-07-24T10:36:02;99719.16;;;28.46;36.95
34073;BME280;20346;52.702;16.886;2023-07-24T10:39:12;99710.85;;;28.44;37.11
34073;BME280;20346;52.702;16.886;2023-07-24T10:42:22;99723.35;;;28.54;37.28
34073;BME280;20346;52.702;16.886;2023-07-24T10:49:03;99715.05;;;28.71;37.13
34073;BME280;20346;52.702;16.886;2023-07-24T10:51:57;99706.45;;;28.77;37.17
34073;BME280;20346;52.702;16.886;2023-07-24T10:54:44;99711.66;;;28.84;37.30
34073;BME280;20346;52.702;16.886;2023-07-24T10:58:10;99704.60;;;28.83;37.09
34073;BME280;20346;52.702;16.886;2023-07-24T11:00:59;99697.42;;;28.87;37.24
34073;BME280;20346;52.702;16.886;2023-07-24T11:04:20;99696.90;;;28.92;37.24
34073;BME280;20346;52.702;16.886;2023-07-24T11:07:22;99692.58;;;28.96;37.20
34073;BME280;20346;52.702;16.886;2023-07-24T11:10:29;99700.90;;;28.96;37.23
34073;BME280;20346;52.702;16.886;2023-07-24T11:13:37;99695.73;;;28.91;37.21
34073;BME280;20346;52.702;16.886;2023-07-24T11:16:28;99689.88;;;28.96;37.33
34073;BME280;20346;52.702;16.886;2023-07-24T11:19:51;99678.88;;;28.98;37.25
34073;BME280;20346;52.702;16.886;2023-07-24T11:22:58;99674.81;;;28.97;37.23
34073;BME280;20346;52.702;16.886;2023-07-24T11:25:45;99672.05;;;29.06;37.25
34073;BME280;20346;52.702;16.886;2023-07-24T11:28:38;99677.16;;;29.12;37.17
34073;BME280;20346;52.702;16.886;2023-07-24T11:31:54;99680.14;;;29.23;37.29
34073;BME280;20346;52.702;16.886;2023-07-24T11:34:43;99674.80;;;29.27;37.20
34073;BME280;20346;52.702;16.886;2023-07-24T11:37:31;99668.20;;;29.25;37.26
34073;BME280;20346;52.702;16.886;2023-07-24T11:40:18;99659.84;;;29.26;37.20
34073;BME280;20346;52.702;16.886;2023-07-24T11:43:25;99655.02;;;29.24;37.18
34073;BME280;20346;52.702;16.886;2023-07-24T11:46:21;99651.48;;;29.26;37.14
34073;BME280;20346;52.702;16.886;2023-07-24T11:49:19;99645.83;;;29.25;36.94
34073;BME280;20346;52.702;16.886;2023-07-24T11:52:05;99635.01;;;29.28;37.09
34073;BME280;20346;52.702;16.886;2023-07-24T11:54:56;99635.67;;;29.32;37.04
34073;BME280;20346;52.702;16.886;2023-07-24T11:57:59;99626.52;;;29.27;36.80
34073;BME280;20346;52.702;16.886;2023-07-24T12:01:02;99626.39;;;29.28;37.04
34073;BME280;20346;52.702;16.886;2023-07-24T12:04:30;99626.31;;;29.33;37.02
34073;BME280;20346;52.702;16.886;2023-07-24T12:07:35;99607.98;;;29.32;36.90
34073;BME280;20346;52.702;16.886;2023-07-24T12:10:49;99602.23;;;29.25;36.81
34073;BME280;20346;52.702;16.886;2023-07-24T12:14:15;99608.15;;;29.23;36.82
34073;BME280;20346;52.702;16.886;2023-07-24T12:17:24;99606.24;;;29.30;36.79
34073;BME280;20346;52.702;16.886;2023-07-24T12:20:50;99595.69;;;29.46;36.90
34073;BME280;20346;52.702;16.886;2023-07-24T12:23:55;99586.38;;;29.53;36.79
34073;BME280;20346;52.702;16.886;2023-07-24T12:26:42;99583.75;;;29.52;36.53
34073;BME280;20346;52.702;16.886;2023-07-24T12:29:52;99580.02;;;29.52;36.68
34073;BME280;20346;52.702;16.886;2023-07-24T12:33:15;99577.67;;;29.56;36.68
34073;BME280;20346;52.702;16.886;2023-07-24T12:36:23;99561.98;;;29.53;36.48
34073;BME280;20346;52.702;16.886;2023-07-24T12:39:30;99558.33;;;29.46;36.37
34073;BME280;20346;52.702;16.886;2023-07-24T12:42:56;99549.36;;;29.39;36.41
34073;BME280;20346;52.702;16.886;2023-07-24T12:46:06;99548.73;;;29.38;36.44
34073;BME280;20346;52.702;16.886;2023-07-24T12:49:12;99550.20;;;29.35;36.34
34073;BME280;20346;52.702;16.886;2023-07-24T12:52:38;99541.29;;;29.35;36.26
34073;BME280;20346;52.702;16.886;2023-07-24T12:55:29;99542.09;;;29.42;36.26
34073;BME280;20346;52.702;16.886;2023-07-24T12:58:43;99538.83;;;29.52;36.38
34073;BME280;20346;52.702;16.886;2023-07-24T13:01:35;99542.80;;;29.56;36.14
34073;BME280;20346;52.702;16.886;2023-07-24T13:04:22;99542.30;;;29.50;36.20
34073;BME280;20346;52.702;16.886;2023-07-24T13:07:35;99539.14;;;29.50;36.35
34073;BME280;20346;52.702;16.886;2023-07-24T13:10:22;99535.48;;;29.61;36.35
34073;BME280;20346;52.702;16.886;2023-07-24T13:13:48;99525.50;;;29.62;36.01
34073;BME280;20346;52.702;16.886;2023-07-24T13:16:54;99528.89;;;29.61;36.16
34073;BME280;20346;52.702;16.886;2023-07-24T13:20:00;99518.05;;;29.68;36.06
34073;BME280;20346;52.702;16.886;2023-07-24T13:23:07;99512.23;;;29.72;35.91
34073;BME280;20346;52.702;16.886;2023-07-24T13:26:02;99503.11;;;29.66;36.04
34073;BME280;20346;52.702;16.886;2023-07-24T13:28:49;99499.73;;;29.63;35.94
34073;BME280;20346;52.702;16.886;2023-07-24T13:31:31;99509.99;;;29.59;35.97
34073;BME280;20346;52.702;16.886;2023-07-24T13:34:38;99507.89;;;29.63;35.91
34073;BME280;20346;52.702;16.886;2023-07-24T13:37:24;99496.95;;;29.64;35.82
34073;BME280;20346;52.702;16.886;2023-07-24T13:40:10;99494.08;;;29.63;35.55
34073;BME280;20346;52.702;16.886;2023-07-24T13:42:56;99488.94;;;29.61;35.72
34073;BME280;20346;52.702;16.886;2023-07-24T13:46:03;99480.09;;;29.59;35.52
34073;BME280;20346;52.702;16.886;2023-07-24T13:49:11;99472.78;;;29.61;35.58
34073;BME280;20346;52.702;16.886;2023-07-24T13:52:18;99468.63;;;29.60;35.29
34073;BME280;20346;52.702;16.886;2023-07-24T13:55:24;99461.84;;;29.61;35.33
34073;BME280;20346;52.702;16.886;2023-07-24T13:58:50;99458.67;;;29.63;35.21
34073;BME280;20346;52.702;16.886;2023-07-24T14:02:01;99464.34;;;29.71;35.13
34073;BME280;20346;52.702;16.886;2023-07-24T14:05:07;99449.89;;;29.71;34.87
34073;BME280;20346;52.702;16.886;2023-07-24T14:08:21;99446.29;;;29.68;34.83
34073;BME280;20346;52.702;16.886;2023-07-24T14:11:16;99439.31;;;29.68;35.06
34073;BME280;20346;52.702;16.886;2023-07-24T14:14:22;99430.98;;;29.71;34.90
34073;BME280;20346;52.702;16.886;2023-07-24T14:17:09;99417.02;;;29.73;34.83
34073;BME280;20346;52.702;16.886;2023-07-24T14:19:56;99419.82;;;29.74;34.94
34073;BME280;20346;52.702;16.886;2023-07-24T14:23:01;99419.33;;;29.83;34.84
34073;BME280;20346;52.702;16.886;2023-07-24T14:26:07;99416.32;;;29.90;34.66
34073;BME280;20346;52.702;16.886;2023-07-24T14:29:33;99410.85;;;29.87;34.64
34073;BME280;20346;52.702;16.886;2023-07-24T14:32:41;99408.28;;;29.81;34.43
34073;BME280;20346;52.702;16.886;2023-07-24T14:36:07;99403.70;;;29.78;34.33
34073;BME280;20346;52.702;16.886;2023-07-24T14:39:32;99392.31;;;29.74;34.34
34073;BME280;20346;52.702;16.886;2023-07-24T14:42:58;99391.74;;;29.74;34.14
34073;BME280;20346;52.702;16.886;2023-07-24T14:45:48;99389.39;;;29.71;34.15
34073;BME280;20346;52.702;16.886;2023-07-24T14:49:14;99374.84;;;29.66;34.07
34073;BME280;20346;52.702;16.886;2023-07-24T14:52:40;99370.94;;;29.62;33.81
34073;BME280;20346;52.702;16.886;2023-07-24T14:56:06;99367.50;;;29.58;33.90
34073;BME280;20346;52.702;16.886;2023-07-24T14:59:32;99367.86;;;29.58;33.93
34073;BME280;20346;52.702;16.886;2023-07-24T15:02:57;99357.27;;;29.54;33.80
34073;BME280;20346;52.702;16.886;2023-07-24T15:06:05;99353.70;;;29.51;33.77
34073;BME280;20346;52.702;16.886;2023-07-24T15:09:31;99344.94;;;29.46;33.67